createdAt,value
2023-07-16T00:00:02.685Z,15.35
2023-07-16T00:02:32.649Z,15.32
2023-07-16T00:04:59.509Z,15.31
2023-07-16T00:07:26.332Z,15.29
2023-07-16T00:09:53.194Z,15.28
2023-07-16T00:12:20.016Z,15.30
2023-07-16T00:14:46.955Z,15.30
2023-07-16T00:17:13.733Z,15.30
2023-07-16T00:19:40.581Z,15.28
2023-07-16T00:22:07.417Z,15.28
2023-07-16T00:24:34.279Z,15.29
2023-07-16T00:27:01.087Z,15.29
2023-07-16T00:29:27.853Z,15.28
2023-07-16T00:31:54.590Z,15.28
2023-07-16T00:34:21.379Z,15.27
2023-07-16T00:36:48.139Z,15.28
2023-07-16T00:39:15.080Z,15.27
2023-07-16T00:41:41.871Z,15.25
2023-07-16T00:44:08.723Z,15.24
2023-07-16T00:46:35.708Z,15.23
2023-07-16T00:49:03.113Z,15.22
2023-07-16T00:51:31.369Z,15.21
2023-07-16T00:53:58.172Z,15.22
2023-07-16T00:56:25.286Z,15.21
2023-07-16T00:58:52.164Z,15.17
2023-07-16T01:01:19.006Z,15.18
2023-07-16T01:03:45.940Z,15.15
2023-07-16T01:06:22.549Z,15.16
2023-07-16T01:09:01.127Z,15.15
2023-07-16T01:11:28.093Z,15.05
2023-07-16T01:13:55.842Z,15.06
2023-07-16T01:16:24.748Z,15.08
2023-07-16T01:18:52.320Z,15.10
2023-07-16T01:21:22.479Z,15.11
2023-07-16T01:23:52.008Z,15.09
2023-07-16T01:26:42.003Z,15.13
2023-07-16T01:29:57.060Z,15.14
2023-07-16T01:32:25.213Z,15.12
2023-07-16T01:34:54.013Z,15.16
2023-07-16T01:37:21.186Z,15.15
2023-07-16T01:39:48.471Z,15.17
2023-07-16T01:42:15.395Z,15.22
2023-07-16T01:44:42.182Z,15.25
2023-07-16T01:47:44.061Z,15.28
2023-07-16T01:50:11.211Z,15.26
2023-07-16T01:52:38.084Z,15.27
2023-07-16T01:55:05.325Z,15.29
2023-07-16T01:57:32.239Z,15.30
2023-07-16T01:59:59.120Z,15.30
2023-07-16T02:02:26.017Z,15.31
2023-07-16T02:04:52.913Z,15.32
2023-07-16T02:07:19.728Z,15.33
2023-07-16T02:09:46.506Z,15.36
2023-07-16T02:12:13.277Z,15.35
2023-07-16T02:14:40.049Z,15.38
2023-07-16T02:17:06.943Z,15.38
2023-07-16T02:19:33.724Z,15.39
2023-07-16T02:22:00.562Z,15.39
2023-07-16T02:24:27.362Z,15.40
2023-07-16T02:26:54.117Z,15.39
2023-07-16T02:29:20.905Z,15.41
2023-07-16T02:31:49.787Z,15.41
2023-07-16T02:34:16.795Z,15.44
2023-07-16T02:36:44.342Z,15.45
2023-07-16T02:39:11.154Z,15.45
2023-07-16T02:41:38.024Z,15.49
2023-07-16T02:44:08.074Z,15.53
2023-07-16T02:46:35.737Z,15.53
2023-07-16T02:49:04.158Z,15.55
2023-07-16T02:51:30.970Z,15.53
2023-07-16T02:53:57.746Z,15.57
2023-07-16T02:56:24.538Z,15.57
2023-07-16T02:58:51.372Z,15.58
2023-07-16T03:01:18.179Z,15.62
2023-07-16T03:03:45.049Z,15.63
2023-07-16T03:06:12.060Z,15.65
2023-07-16T03:08:38.867Z,15.64
2023-07-16T03:11:05.666Z,15.67
2023-07-16T03:13:32.463Z,15.69
2023-07-16T03:15:59.383Z,15.72
2023-07-16T03:18:30.687Z,15.75
2023-07-16T03:20:58.616Z,15.75
2023-07-16T03:23:26.085Z,15.76
2023-07-16T03:25:53.308Z,15.77
2023-07-16T03:28:20.064Z,15.81
2023-07-16T03:30:51.215Z,15.85
2023-07-16T03:33:18.150Z,15.84
2023-07-16T03:35:46.040Z,15.86
2023-07-16T03:38:13.740Z,15.88
2023-07-16T03:40:40.915Z,15.89
2023-07-16T03:43:07.720Z,15.92
2023-07-16T03:45:34.540Z,15.95
2023-07-16T03:48:02.804Z,15.95
2023-07-16T03:50:29.812Z,15.97
2023-07-16T03:52:56.862Z,15.98
2023-07-16T03:55:23.684Z,16.01
2023-07-16T03:57:50.525Z,16.04
2023-07-16T04:00:17.442Z,16.04
2023-07-16T04:02:44.330Z,16.03
2023-07-16T04:05:11.382Z,16.02
2023-07-16T04:07:38.266Z,16.01
2023-07-16T04:10:05.461Z,16.02
2023-07-16T04:12:32.268Z,16.02
2023-07-16T04:15:00.532Z,16.01
2023-07-16T04:17:27.482Z,16.04
2023-07-16T04:19:54.269Z,16.10
2023-07-16T04:22:21.142Z,16.15
2023-07-16T04:24:47.915Z,16.17
2023-07-16T04:27:15.000Z,16.21
2023-07-16T04:29:41.758Z,16.27
2023-07-16T04:32:08.640Z,16.30
2023-07-16T04:34:35.436Z,16.35
2023-07-16T04:37:02.238Z,16.34
2023-07-16T04:39:29.007Z,16.37
2023-07-16T04:41:55.782Z,16.42
2023-07-16T04:44:22.606Z,16.40
2023-07-16T04:46:49.447Z,16.46
2023-07-16T04:49:16.311Z,16.47
2023-07-16T04:51:43.152Z,16.48
2023-07-16T04:54:10.793Z,16.51
2023-07-16T04:56:37.572Z,16.53
2023-07-16T04:59:04.353Z,16.56
2023-07-16T05:01:31.194Z,16.62
2023-07-16T05:03:58.073Z,16.67
2023-07-16T05:06:24.897Z,16.70
2023-07-16T05:08:51.701Z,16.68
2023-07-16T05:11:18.622Z,16.71
2023-07-16T05:13:45.413Z,16.77
2023-07-16T05:16:12.284Z,16.80
2023-07-16T05:18:39.256Z,16.84
2023-07-16T05:21:06.035Z,16.90
2023-07-16T05:23:32.825Z,16.96
2023-07-16T05:25:59.673Z,17.00
2023-07-16T05:28:26.991Z,17.04
2023-07-16T05:31:03.897Z,17.11
2023-07-16T05:33:30.935Z,17.16
2023-07-16T05:35:57.829Z,17.19
2023-07-16T05:38:24.682Z,17.17
2023-07-16T05:40:51.555Z,17.20
2023-07-16T05:43:18.597Z,17.23
2023-07-16T05:45:45.582Z,17.28
2023-07-16T05:48:13.148Z,17.30
2023-07-16T05:50:40.100Z,17.29
2023-07-16T05:53:06.970Z,17.35
2023-07-16T05:55:33.898Z,17.41
2023-07-16T05:58:00.781Z,17.47
2023-07-16T06:00:29.576Z,17.60
2023-07-16T06:02:56.512Z,17.71
2023-07-16T06:05:23.526Z,17.77
2023-07-16T06:07:50.342Z,17.85
2023-07-16T06:10:17.215Z,17.87
2023-07-16T06:12:44.051Z,17.93
2023-07-16T06:15:11.159Z,18.00
2023-07-16T06:17:37.946Z,18.02
2023-07-16T06:20:07.144Z,17.96
2023-07-16T06:22:34.090Z,17.99
2023-07-16T06:25:01.597Z,18.03
2023-07-16T06:27:29.563Z,18.06
2023-07-16T06:29:56.336Z,18.02
2023-07-16T06:32:23.261Z,18.00
2023-07-16T06:34:50.029Z,17.96
2023-07-16T06:37:16.837Z,17.90
2023-07-16T06:39:43.645Z,17.80
2023-07-16T06:42:10.489Z,17.75
2023-07-16T06:44:37.580Z,17.79
2023-07-16T06:47:04.586Z,17.89
2023-07-16T06:49:32.549Z,18.01
2023-07-16T06:52:03.465Z,18.10
2023-07-16T06:54:30.378Z,18.19
2023-07-16T06:56:57.199Z,18.24
2023-07-16T06:59:24.070Z,18.11
2023-07-16T07:01:50.845Z,18.02
2023-07-16T07:04:17.679Z,17.93
2023-07-16T07:06:44.494Z,17.96
2023-07-16T07:09:11.353Z,17.93
2023-07-16T07:11:38.205Z,18.04
2023-07-16T07:14:05.022Z,18.15
2023-07-16T07:16:31.935Z,18.20
2023-07-16T07:18:58.885Z,18.25
2023-07-16T07:21:25.673Z,18.29
2023-07-16T07:23:52.560Z,18.38
2023-07-16T07:26:19.524Z,18.41
2023-07-16T07:28:46.400Z,18.50
2023-07-16T07:31:13.208Z,18.57
2023-07-16T07:33:40.100Z,18.53
2023-07-16T07:36:07.147Z,18.57
2023-07-16T07:38:33.923Z,18.59
2023-07-16T07:41:00.903Z,18.60
2023-07-16T07:43:28.216Z,18.56
2023-07-16T07:45:55.107Z,18.58
2023-07-16T07:48:23.035Z,18.59
2023-07-16T07:50:52.867Z,18.51
2023-07-16T07:53:20.255Z,18.44
2023-07-16T07:55:47.153Z,18.48
2023-07-16T07:58:14.100Z,18.52
2023-07-16T08:00:40.854Z,18.60
2023-07-16T08:03:07.781Z,18.69
2023-07-16T08:05:35.254Z,18.79
2023-07-16T08:08:02.128Z,18.86
2023-07-16T08:10:29.055Z,19.01
2023-07-16T08:12:55.853Z,19.19
2023-07-16T08:15:22.729Z,19.37
2023-07-16T08:17:49.929Z,19.57
2023-07-16T08:20:17.095Z,19.75
2023-07-16T08:22:43.980Z,19.89
2023-07-16T08:25:10.831Z,20.05
2023-07-16T08:27:38.645Z,20.29
2023-07-16T08:30:06.104Z,20.47
2023-07-16T08:32:33.034Z,20.68
2023-07-16T08:34:59.806Z,20.80
2023-07-16T08:37:26.641Z,20.64
2023-07-16T08:39:54.897Z,20.45
2023-07-16T08:42:22.068Z,20.41
2023-07-16T08:44:52.985Z,20.49
2023-07-16T08:47:19.866Z,20.56
2023-07-16T08:50:05.325Z,20.44
2023-07-16T08:52:32.161Z,20.45
2023-07-16T08:54:58.963Z,20.45
2023-07-16T08:57:27.196Z,20.46
2023-07-16T08:59:55.096Z,20.39
2023-07-16T09:02:22.732Z,20.65
2023-07-16T09:04:50.311Z,20.98
2023-07-16T09:07:17.112Z,21.20
2023-07-16T09:09:46.766Z,21.50
2023-07-16T09:12:14.007Z,21.62
2023-07-16T09:14:44.033Z,21.51
2023-07-16T09:17:10.816Z,21.55
2023-07-16T09:19:37.628Z,21.74
2023-07-16T09:22:04.672Z,21.83
2023-07-16T09:24:31.479Z,21.77
2023-07-16T09:26:58.463Z,21.85
2023-07-16T09:29:28.226Z,21.88
2023-07-16T09:32:01.713Z,22.04
2023-07-16T09:34:29.476Z,22.12
2023-07-16T09:36:57.565Z,21.98
2023-07-16T09:39:25.999Z,21.75
2023-07-16T09:41:53.171Z,21.43
2023-07-16T09:44:21.118Z,21.26
2023-07-16T09:46:48.287Z,21.13
2023-07-16T09:49:16.756Z,21.09
2023-07-16T09:51:44.877Z,21.01
2023-07-16T09:54:14.846Z,20.99
2023-07-16T09:56:55.732Z,20.98
2023-07-16T09:59:26.199Z,20.90
2023-07-16T10:01:54.476Z,20.82
2023-07-16T10:04:22.331Z,20.62
2023-07-16T10:07:19.279Z,20.56
2023-07-16T10:09:58.108Z,20.48
2023-07-16T10:12:27.238Z,20.38
2023-07-16T10:15:03.958Z,20.29
2023-07-16T10:17:33.566Z,20.18
2023-07-16T10:20:05.761Z,20.18
2023-07-16T10:22:48.008Z,20.12
2023-07-16T10:25:20.862Z,20.13
2023-07-16T10:27:50.241Z,20.16
2023-07-16T10:30:17.959Z,20.21
2023-07-16T10:32:45.590Z,20.28
2023-07-16T10:35:12.514Z,20.35
2023-07-16T10:37:40.298Z,20.44
2023-07-16T10:40:11.914Z,20.52
2023-07-16T10:42:41.018Z,20.57
2023-07-16T10:45:08.636Z,20.68
2023-07-16T10:47:37.408Z,20.78
2023-07-16T10:50:06.935Z,20.93
2023-07-16T10:52:35.056Z,21.04
2023-07-16T10:55:02.270Z,21.17
2023-07-16T10:57:29.617Z,21.27
2023-07-16T10:59:59.192Z,21.43
2023-07-16T11:02:27.384Z,21.79
2023-07-16T11:04:58.870Z,21.86
2023-07-16T11:07:25.732Z,22.00
2023-07-16T11:09:55.030Z,22.03
2023-07-16T11:12:23.729Z,21.83
2023-07-16T11:14:54.901Z,21.61
2023-07-16T11:17:24.148Z,21.34
2023-07-16T11:19:52.523Z,21.11
2023-07-16T11:22:19.713Z,20.90
2023-07-16T11:24:48.811Z,20.94
2023-07-16T11:27:17.559Z,21.21
2023-07-16T11:29:52.956Z,21.66
2023-07-16T11:32:43.821Z,22.03
2023-07-16T11:35:17.224Z,22.65
2023-07-16T11:37:45.249Z,23.87
2023-07-16T11:40:16.346Z,23.82
2023-07-16T11:42:43.966Z,23.95
2023-07-16T11:45:19.599Z,25.11
2023-07-16T11:47:46.882Z,25.18
2023-07-16T11:50:14.453Z,25.74
2023-07-16T11:52:41.703Z,26.20
2023-07-16T11:55:09.208Z,26.31
2023-07-16T11:57:37.018Z,26.51
2023-07-16T12:00:05.165Z,27.24
2023-07-16T12:02:34.990Z,27.03
2023-07-16T12:05:02.246Z,26.90
2023-07-16T12:07:35.286Z,26.64
2023-07-16T12:10:05.148Z,26.21
2023-07-16T12:12:33.661Z,26.33
2023-07-16T12:15:01.271Z,26.05
2023-07-16T12:17:29.499Z,25.72
2023-07-16T12:19:56.661Z,25.36
2023-07-16T12:22:25.250Z,25.03
2023-07-16T12:24:52.164Z,24.67
2023-07-16T12:27:19.320Z,24.22
2023-07-16T12:29:46.116Z,23.72
2023-07-16T12:32:14.692Z,23.36
2023-07-16T12:34:41.504Z,23.00
2023-07-16T12:37:08.346Z,22.74
2023-07-16T12:39:35.239Z,22.55
2023-07-16T12:42:02.113Z,22.34
2023-07-16T12:44:28.897Z,22.15
2023-07-16T12:46:55.822Z,21.95
2023-07-16T12:49:22.596Z,21.76
2023-07-16T12:51:49.372Z,21.63
2023-07-16T12:54:16.157Z,21.56
2023-07-16T12:56:42.963Z,21.49
2023-07-16T12:59:09.769Z,21.48
2023-07-16T13:01:37.188Z,21.48
2023-07-16T13:04:04.170Z,21.57
2023-07-16T13:06:31.018Z,21.70
2023-07-16T13:08:57.842Z,21.82
2023-07-16T13:11:25.531Z,21.92
2023-07-16T13:13:53.087Z,22.04
2023-07-16T13:16:20.389Z,22.04
2023-07-16T13:18:47.537Z,22.02
2023-07-16T13:21:14.335Z,21.97
2023-07-16T13:23:41.152Z,22.04
2023-07-16T13:26:07.935Z,22.02
2023-07-16T13:28:34.736Z,21.95
2023-07-16T13:31:01.680Z,21.85
2023-07-16T13:33:28.540Z,21.80
2023-07-16T13:35:55.545Z,21.77
2023-07-16T13:38:22.345Z,21.68
2023-07-16T13:40:49.139Z,21.64
2023-07-16T13:43:15.997Z,21.66
2023-07-16T13:45:42.757Z,21.65
2023-07-16T13:48:09.641Z,21.63
2023-07-16T13:50:36.915Z,21.52
2023-07-16T13:53:05.002Z,21.41
2023-07-16T13:55:31.874Z,21.27
2023-07-16T13:57:58.749Z,21.17
2023-07-16T14:00:25.568Z,21.07
2023-07-16T14:02:53.049Z,21.00
2023-07-16T14:05:21.049Z,20.90
2023-07-16T14:07:48.372Z,20.85
2023-07-16T14:10:15.278Z,20.77
2023-07-16T14:12:42.104Z,20.77
2023-07-16T14:15:09.141Z,20.81
2023-07-16T14:17:35.969Z,20.80
2023-07-16T14:20:02.765Z,20.81
2023-07-16T14:22:30.727Z,20.74
2023-07-16T14:24:57.602Z,20.72
2023-07-16T14:27:24.565Z,20.68
2023-07-16T14:30:04.144Z,20.64
2023-07-16T14:32:33.157Z,20.61
2023-07-16T14:35:00.371Z,20.45
2023-07-16T14:37:27.158Z,20.47
2023-07-16T14:39:53.951Z,20.46
2023-07-16T14:42:20.954Z,20.44
2023-07-16T14:44:48.252Z,20.42
2023-07-16T14:47:15.060Z,20.46
2023-07-16T14:49:43.249Z,20.48
2023-07-16T14:52:10.078Z,20.47
2023-07-16T14:54:37.508Z,20.50
2023-07-16T14:57:05.009Z,20.55
2023-07-16T14:59:31.891Z,20.60
2023-07-16T15:01:58.703Z,20.63
2023-07-16T15:04:26.055Z,20.67
2023-07-16T15:06:52.908Z,20.76
2023-07-16T15:09:19.758Z,20.83
2023-07-16T15:11:46.702Z,20.94
2023-07-16T15:14:14.070Z,21.03
2023-07-16T15:16:41.291Z,21.08
2023-07-16T15:19:09.610Z,21.14
2023-07-16T15:21:39.600Z,21.11
2023-07-16T15:24:09.514Z,21.20
2023-07-16T15:26:36.354Z,21.21
2023-07-16T15:29:03.126Z,21.18
2023-07-16T15:31:30.321Z,21.21
2023-07-16T15:33:57.920Z,21.21
2023-07-16T15:36:26.929Z,21.20
2023-07-16T15:38:53.975Z,21.19
2023-07-16T15:41:21.582Z,21.15
2023-07-16T15:43:50.918Z,21.18
2023-07-16T15:46:19.284Z,21.17
2023-07-16T15:48:46.987Z,21.12
2023-07-16T15:51:14.434Z,21.02
2023-07-16T15:53:43.022Z,21.03
2023-07-16T15:56:13.576Z,21.00
2023-07-16T15:58:41.248Z,20.91
2023-07-16T16:01:08.077Z,20.82
2023-07-16T16:03:35.533Z,20.72
2023-07-16T16:06:02.537Z,20.64
2023-07-16T16:08:29.400Z,20.57
2023-07-16T16:10:57.768Z,20.50
2023-07-16T16:13:25.679Z,20.45
2023-07-16T16:15:52.596Z,20.38
2023-07-16T16:18:20.075Z,20.35
2023-07-16T16:20:48.222Z,20.26
2023-07-16T16:23:15.502Z,20.20
2023-07-16T16:25:42.950Z,20.11
2023-07-16T16:28:11.152Z,20.05
2023-07-16T16:30:40.812Z,20.02
2023-07-16T16:33:09.363Z,19.98
2023-07-16T16:35:43.641Z,19.97
2023-07-16T16:38:11.223Z,19.87
2023-07-16T16:40:43.133Z,19.81
2023-07-16T16:43:10.358Z,19.78
2023-07-16T16:45:43.259Z,19.77
2023-07-16T16:48:10.940Z,19.73
2023-07-16T16:50:38.747Z,19.64
2023-07-16T16:53:06.328Z,19.64
2023-07-16T16:55:33.140Z,19.65
2023-07-16T16:57:59.946Z,19.64
2023-07-16T17:00:26.751Z,19.61
2023-07-16T17:02:53.769Z,19.53
2023-07-16T17:05:21.191Z,19.49
2023-07-16T17:07:48.482Z,19.48
2023-07-16T17:10:15.324Z,19.43
2023-07-16T17:12:43.971Z,19.33
2023-07-16T17:15:13.534Z,19.28
2023-07-16T17:17:40.446Z,19.25
2023-07-16T17:20:11.173Z,19.22
2023-07-16T17:22:39.797Z,19.18
2023-07-16T17:25:07.509Z,19.15
2023-07-16T17:27:35.107Z,19.12
2023-07-16T17:30:02.007Z,19.06
2023-07-16T17:32:32.664Z,19.02
2023-07-16T17:34:59.877Z,18.99
2023-07-16T17:37:26.704Z,18.94
2023-07-16T17:39:53.513Z,18.90
2023-07-16T17:42:22.447Z,18.87
2023-07-16T17:44:51.684Z,18.80
2023-07-16T17:47:18.586Z,18.71
2023-07-16T17:49:47.000Z,18.68
2023-07-16T17:52:14.489Z,18.56
2023-07-16T17:54:41.254Z,18.53
2023-07-16T17:57:08.380Z,18.57
2023-07-16T17:59:35.135Z,18.55
2023-07-16T18:02:02.178Z,18.54
2023-07-16T18:04:29.186Z,18.52
2023-07-16T18:06:56.079Z,18.50
2023-07-16T18:09:22.980Z,18.47
2023-07-16T18:11:49.783Z,18.41
2023-07-16T18:14:16.613Z,18.38
2023-07-16T18:16:43.686Z,18.35
2023-07-16T18:19:12.571Z,18.20
2023-07-16T18:21:53.936Z,18.04
2023-07-16T18:24:27.254Z,18.00
2023-07-16T18:26:56.822Z,18.02
2023-07-16T18:29:23.695Z,18.02
2023-07-16T18:31:50.554Z,18.02
2023-07-16T18:34:18.030Z,17.99
2023-07-16T18:36:45.027Z,17.96
2023-07-16T18:39:11.857Z,17.90
2023-07-16T18:41:38.811Z,17.90
2023-07-16T18:44:05.825Z,17.89
2023-07-16T18:46:32.639Z,17.87
2023-07-16T18:48:59.409Z,17.85
2023-07-16T18:51:26.293Z,17.82
2023-07-16T18:53:53.103Z,17.79
2023-07-16T18:56:20.001Z,17.76
2023-07-16T18:58:46.823Z,17.73
2023-07-16T19:01:14.594Z,17.71
2023-07-16T19:03:42.234Z,17.68
2023-07-16T19:06:09.507Z,17.66
2023-07-16T19:08:36.332Z,17.64
2023-07-16T19:11:03.133Z,17.63
2023-07-16T19:13:30.003Z,17.59
2023-07-16T19:15:56.829Z,17.55
2023-07-16T19:18:23.658Z,17.55
2023-07-16T19:20:50.463Z,17.53
2023-07-16T19:23:17.347Z,17.53
2023-07-16T19:25:44.187Z,17.52
2023-07-16T19:28:13.863Z,17.49
2023-07-16T19:30:40.836Z,17.45
2023-07-16T19:33:07.721Z,17.44
2023-07-16T19:35:34.759Z,17.40
2023-07-16T19:38:01.803Z,17.38
2023-07-16T19:40:29.115Z,17.36
2023-07-16T19:42:55.982Z,17.38
2023-07-16T19:45:22.774Z,17.34
2023-07-16T19:47:49.698Z,17.33
2023-07-16T19:50:16.613Z,17.31
2023-07-16T19:52:43.552Z,17.28
2023-07-16T19:55:10.347Z,17.28
2023-07-16T19:57:39.210Z,17.25
2023-07-16T20:00:12.414Z,17.23
2023-07-16T20:02:39.745Z,17.20
2023-07-16T20:05:06.961Z,17.18
2023-07-16T20:07:36.416Z,17.17
2023-07-16T20:10:07.120Z,17.18
2023-07-16T20:12:34.020Z,17.13
2023-07-16T20:15:00.889Z,17.13
2023-07-16T20:17:29.261Z,17.11
2023-07-16T20:19:56.215Z,17.01
2023-07-16T20:22:25.053Z,17.00
2023-07-16T20:24:51.953Z,17.02
2023-07-16T20:27:19.212Z,17.03
2023-07-16T20:29:46.697Z,17.03
2023-07-16T20:32:13.515Z,16.98
2023-07-16T20:34:40.269Z,16.92
2023-07-16T20:37:07.784Z,16.86
2023-07-16T20:39:34.617Z,16.85
2023-07-16T20:42:02.009Z,16.85
2023-07-16T20:44:28.806Z,16.84
2023-07-16T20:46:56.007Z,16.84
2023-07-16T20:49:22.925Z,16.81
2023-07-16T20:51:51.384Z,16.78
2023-07-16T20:54:18.232Z,16.75
2023-07-16T20:56:45.030Z,16.73
2023-07-16T20:59:11.799Z,16.72
2023-07-16T21:01:38.604Z,16.73
2023-07-16T21:04:05.570Z,16.70
2023-07-16T21:06:32.354Z,16.65
2023-07-16T21:08:59.127Z,16.61
2023-07-16T21:11:25.914Z,16.57
2023-07-16T21:13:52.711Z,16.55
2023-07-16T21:16:19.583Z,16.55
2023-07-16T21:18:46.504Z,16.54
2023-07-16T21:21:15.719Z,16.55
2023-07-16T21:23:42.964Z,16.53
2023-07-16T21:26:09.737Z,16.51
2023-07-16T21:28:36.544Z,16.51
2023-07-16T21:31:03.389Z,16.49
2023-07-16T21:33:30.286Z,16.47
2023-07-16T21:35:57.106Z,16.44
2023-07-16T21:38:23.878Z,16.41
2023-07-16T21:40:51.904Z,16.37
2023-07-16T21:43:18.690Z,16.35
2023-07-16T21:45:45.466Z,16.32
2023-07-16T21:48:12.551Z,16.30
2023-07-16T21:50:39.416Z,16.26
2023-07-16T21:53:17.316Z,16.24
2023-07-16T21:55:46.693Z,16.17
2023-07-16T21:58:13.494Z,16.17
2023-07-16T22:00:40.320Z,16.14
2023-07-16T22:03:07.142Z,16.15
2023-07-16T22:05:34.086Z,16.13
2023-07-16T22:08:00.877Z,16.12
2023-07-16T22:10:27.719Z,16.11
2023-07-16T22:12:54.898Z,16.08
2023-07-16T22:15:21.757Z,16.08
2023-07-16T22:17:48.877Z,16.04
2023-07-16T22:20:16.152Z,15.99
2023-07-16T22:22:43.080Z,15.96
2023-07-16T22:25:10.158Z,15.92
2023-07-16T22:27:37.091Z,15.88
2023-07-16T22:30:05.578Z,15.87
2023-07-16T22:32:32.733Z,15.86
2023-07-16T22:34:59.570Z,15.88
2023-07-16T22:37:26.364Z,15.90
2023-07-16T22:39:53.170Z,15.89
2023-07-16T22:42:20.015Z,15.87
2023-07-16T22:44:47.772Z,15.82
2023-07-16T22:47:15.321Z,15.78
2023-07-16T22:49:42.204Z,15.78
2023-07-16T22:52:09.092Z,15.76
2023-07-16T22:54:40.453Z,15.76
2023-07-16T22:57:08.174Z,15.77
2023-07-16T22:59:35.451Z,15.77
2023-07-16T23:02:02.639Z,15.74
2023-07-16T23:04:29.490Z,15.69
2023-07-16T23:06:59.162Z,15.69
2023-07-16T23:09:26.367Z,15.67
2023-07-16T23:11:53.478Z,15.67
2023-07-16T23:14:20.301Z,15.63
2023-07-16T23:16:47.145Z,15.61
2023-07-16T23:19:13.944Z,15.57
2023-07-16T23:21:40.756Z,15.57
2023-07-16T23:24:07.922Z,15.58
2023-07-16T23:26:34.706Z,15.57
2023-07-16T23:29:01.521Z,15.57
2023-07-16T23:31:28.388Z,15.53
2023-07-16T23:33:55.241Z,15.53
2023-07-16T23:36:22.561Z,15.50
2023-07-16T23:38:49.413Z,15.47
2023-07-16T23:41:18.625Z,15.48
2023-07-16T23:43:45.741Z,15.46
2023-07-16T23:46:13.174Z,15.46
2023-07-16T23:48:40.045Z,15.46
2023-07-16T23:51:06.859Z,15.48
2023-07-16T23:53:33.653Z,15.49
2023-07-16T23:56:00.408Z,15.47
2023-07-16T23:58:27.422Z,15.48
